sensor_id;sensor_type;location;lat;lon;timestamp;pressure;altitude;pressure_sealevel;temperature;humidity
3434;BME280;1730;41.932;25.548;2023-05-29T00:00:14;102248.50;;;18.07;100.00
3434;BME280;1730;41.932;25.548;2023-05-29T00:02:44;102224.16;;;18.03;100.00
3434;BME280;1730;41.932;25.548;2023-05-29T00:05:11;102026.72;;;17.09;100.00
3434;BME280;1730;41.932;25.548;2023-05-29T00:07:38;102048.53;;;17.41;100.00
3434;BME280;1730;41.932;25.548;2023-05-29T00:10:04;102078.94;;;17.68;100.00
3434;BME280;1730;41.932;25.548;2023-05-29T00:12:30;101787.44;;;16.07;100.00
3434;BME280;1730;41.932;25.548;2023-05-29T00:14:56;101845.03;;;16.35;100.00
3434;BME280;1730;41.932;25.548;2023-05-29T00:17:22;102098.72;;;17.81;100.00
3434;BME280;1730;41.932;25.548;2023-05-29T00:19:49;101928.66;;;16.87;100.00
3434;BME280;1730;41.932;25.548;2023-05-29T00:22:15;102086.63;;;18.05;100.00
3434;BME280;1730;41.932;25.548;2023-05-29T00:24:40;101966.13;;;17.47;100.00
3434;BME280;1730;41.932;25.548;2023-05-29T00:27:06;101904.81;;;17.21;100.00
3434;BME280;1730;41.932;25.548;2023-05-29T00:29:31;102034.63;;;18.06;100.00
3434;BME280;1730;41.932;25.548;2023-05-29T00:31:57;102003.66;;;17.96;100.00
3434;BME280;1730;41.932;25.548;2023-05-29T00:34:23;101983.09;;;17.92;100.00
3434;BME280;1730;41.932;25.548;2023-05-29T00:36:49;101992.28;;;17.91;100.00
3434;BME280;1730;41.932;25.548;2023-05-29T00:39:15;101996.88;;;17.90;100.00
3434;BME280;1730;41.932;25.548;2023-05-29T00:41:40;101772.59;;;16.64;100.00
3434;BME280;1730;41.932;25.548;2023-05-29T00:44:06;101949.25;;;17.74;100.00
3434;BME280;1730;41.932;25.548;2023-05-29T00:46:32;101935.81;;;17.61;100.00
3434;BME280;1730;41.932;25.548;2023-05-29T00:48:59;101875.09;;;17.18;100.00
3434;BME280;1730;41.932;25.548;2023-05-29T00:51:26;101811.97;;;16.71;100.00
3434;BME280;1730;41.932;25.548;2023-05-29T00:53:53;102036.25;;;17.88;100.00
3434;BME280;1730;41.932;25.548;2023-05-29T00:56:19;101912.53;;;16.95;100.00
3434;BME280;1730;41.932;25.548;2023-05-29T00:58:47;101845.41;;;16.30;100.00
3434;BME280;1730;41.932;25.548;2023-05-29T01:01:16;101939.56;;;16.87;100.00
3434;BME280;1730;41.932;25.548;2023-05-29T01:03:42;101952.81;;;16.91;100.00
3434;BME280;1730;41.932;25.548;2023-05-29T01:06:08;101954.81;;;16.89;100.00
3434;BME280;1730;41.932;25.548;2023-05-29T01:08:35;102120.75;;;17.89;100.00
3434;BME280;1730;41.932;25.548;2023-05-29T01:14:04;102094.97;;;18.03;100.00
3434;BME280;1730;41.932;25.548;2023-05-29T01:16:37;102055.41;;;17.97;100.00
3434;BME280;1730;41.932;25.548;2023-05-29T01:22:25;101844.13;;;16.98;100.00
3434;BME280;1730;41.932;25.548;2023-05-29T01:27:58;101951.31;;;17.91;100.00
3434;BME280;1730;41.932;25.548;2023-05-29T01:30:28;101818.28;;;17.23;100.00
3434;BME280;1730;41.932;25.548;2023-05-29T01:32:56;101928.94;;;17.97;100.00
3434;BME280;1730;41.932;25.548;2023-05-29T01:35:22;101897.13;;;17.86;100.00
3434;BME280;1730;41.932;25.548;2023-05-29T01:37:48;101775.53;;;17.23;100.00
3434;BME280;1730;41.932;25.548;2023-05-29T01:40:13;101582.09;;;16.21;100.00
3434;BME280;1730;41.932;25.548;2023-05-29T01:42:39;101679.03;;;16.75;100.00
3434;BME280;1730;41.932;25.548;2023-05-29T01:45:05;101720.19;;;17.11;100.00
3434;BME280;1730;41.932;25.548;2023-05-29T01:47:33;101696.19;;;16.96;100.00
3434;BME280;1730;41.932;25.548;2023-05-29T01:49:59;101836.81;;;17.89;100.00
3434;BME280;1730;41.932;25.548;2023-05-29T01:52:25;101816.66;;;17.71;100.00
3434;BME280;1730;41.932;25.548;2023-05-29T01:54:50;101820.53;;;17.78;100.00
3434;BME280;1730;41.932;25.548;2023-05-29T01:57:16;101565.13;;;16.38;100.00
3434;BME280;1730;41.932;25.548;2023-05-29T01:59:42;101689.91;;;17.05;100.00
3434;BME280;1730;41.932;25.548;2023-05-29T02:02:08;101663.19;;;16.89;100.00
3434;BME280;1730;41.932;25.548;2023-05-29T02:04:34;101815.25;;;17.77;100.00
3434;BME280;1730;41.932;25.548;2023-05-29T02:07:00;101793.63;;;17.64;100.00
3434;BME280;1730;41.932;25.548;2023-05-29T02:09:25;101812.72;;;17.64;100.00
3434;BME280;1730;41.932;25.548;2023-05-29T02:11:51;101548.59;;;16.00;100.00
3434;BME280;1730;41.932;25.548;2023-05-29T02:14:17;101844.69;;;17.52;100.00
3434;BME280;1730;41.932;25.548;2023-05-29T02:16:42;101871.97;;;17.52;100.00
3434;BME280;1730;41.932;25.548;2023-05-29T02:19:09;101914.72;;;17.63;100.00
3434;BME280;1730;41.932;25.548;2023-05-29T02:21:38;101634.81;;;15.99;100.00
3434;BME280;1730;41.932;25.548;2023-05-29T02:24:04;101936.34;;;17.55;100.00
3434;BME280;1730;41.932;25.548;2023-05-29T02:26:29;101801.38;;;16.46;100.00
3434;BME280;1730;41.932;25.548;2023-05-29T02:28:55;101968.91;;;17.68;100.00
3434;BME280;1730;41.932;25.548;2023-05-29T02:31:21;101391.59;;;14.34;100.00
3434;BME280;1730;41.932;25.548;2023-05-29T02:33:47;101943.66;;;17.75;100.00
3434;BME280;1730;41.932;25.548;2023-05-29T02:36:13;101808.72;;;17.07;100.00
3434;BME280;1730;41.932;25.548;2023-05-29T02:38:39;101794.91;;;16.99;100.00
3434;BME280;1730;41.932;25.548;2023-05-29T02:41:05;101923.16;;;17.81;100.00
3434;BME280;1730;41.932;25.548;2023-05-29T02:43:31;101776.75;;;17.09;100.00
3434;BME280;1730;41.932;25.548;2023-05-29T02:45:56;101855.03;;;17.49;100.00
3434;BME280;1730;41.932;25.548;2023-05-29T02:48:22;101719.62;;;16.78;100.00
3434;BME280;1730;41.932;25.548;2023-05-29T02:50:47;101636.66;;;16.19;100.00
3434;BME280;1730;41.932;25.548;2023-05-29T02:53:13;101914.84;;;17.62;100.00
3434;BME280;1730;41.932;25.548;2023-05-29T02:55:38;101765.56;;;16.50;100.00
3434;BME280;1730;41.932;25.548;2023-05-29T02:58:04;101638.59;;;15.87;100.00
3434;BME280;1730;41.932;25.548;2023-05-29T03:00:29;101828.56;;;17.09;100.00
3434;BME280;1730;41.932;25.548;2023-05-29T03:02:55;101584.84;;;15.80;100.00
3434;BME280;1730;41.932;25.548;2023-05-29T03:05:20;101447.50;;;15.01;100.00
3434;BME280;1730;41.932;25.548;2023-05-29T03:07:46;101909.38;;;17.92;100.00
3434;BME280;1730;41.932;25.548;2023-05-29T03:10:11;101731.25;;;16.80;100.00
3434;BME280;1730;41.932;25.548;2023-05-29T03:12:37;101886.63;;;17.82;100.00
3434;BME280;1730;41.932;25.548;2023-05-29T03:15:03;101850.97;;;17.74;100.00
3434;BME280;1730;41.932;25.548;2023-05-29T03:17:29;101857.94;;;17.87;100.00
3434;BME280;1730;41.932;25.548;2023-05-29T03:19:54;101576.94;;;16.48;100.00
3434;BME280;1730;41.932;25.548;2023-05-29T03:22:20;101768.41;;;17.72;100.00
3434;BME280;1730;41.932;25.548;2023-05-29T03:24:47;101640.28;;;17.21;100.00
3434;BME280;1730;41.932;25.548;2023-05-29T03:27:12;101507.06;;;16.58;100.00
3434;BME280;1730;41.932;25.548;2023-05-29T03:29:38;101692.72;;;18.02;100.00
3434;BME280;1730;41.932;25.548;2023-05-29T03:32:03;101105.19;;;14.91;100.00
3434;BME280;1730;41.932;25.548;2023-05-29T03:34:29;101382.16;;;16.83;100.00
3434;BME280;1730;41.932;25.548;2023-05-29T03:36:55;101551.50;;;17.85;100.00
3434;BME280;1730;41.932;25.548;2023-05-29T03:39:22;101467.50;;;17.31;100.00
3434;BME280;1730;41.932;25.548;2023-05-29T03:41:47;101401.38;;;17.20;100.00
3434;BME280;1730;41.932;25.548;2023-05-29T03:44:13;101458.31;;;17.42;100.00
3434;BME280;1730;41.932;25.548;2023-05-29T03:46:38;101260.84;;;16.50;100.00
3434;BME280;1730;41.932;25.548;2023-05-29T03:49:04;101422.25;;;17.48;100.00
3434;BME280;1730;41.932;25.548;2023-05-29T03:51:32;101237.47;;;16.57;100.00
3434;BME280;1730;41.932;25.548;2023-05-29T03:53:57;101485.41;;;18.19;100.00
3434;BME280;1730;41.932;25.548;2023-05-29T03:56:23;101282.88;;;17.04;100.00
3434;BME280;1730;41.932;25.548;2023-05-29T03:58:49;101425.12;;;18.30;100.00
3434;BME280;1730;41.932;25.548;2023-05-29T04:01:15;101363.09;;;18.40;100.00
3434;BME280;1730;41.932;25.548;2023-05-29T04:03:41;101040.34;;;16.67;100.00
3434;BME280;1730;41.932;25.548;2023-05-29T04:06:07;101150.41;;;17.56;100.00
3434;BME280;1730;41.932;25.548;2023-05-29T04:08:33;100989.87;;;16.91;100.00
3434;BME280;1730;41.932;25.548;2023-05-29T04:10:58;101006.56;;;17.41;100.00
3434;BME280;1730;41.932;25.548;2023-05-29T04:13:24;101153.06;;;18.55;100.00
3434;BME280;1730;41.932;25.548;2023-05-29T04:15:49;101087.38;;;18.64;100.00
3434;BME280;1730;41.932;25.548;2023-05-29T04:18:19;100961.88;;;18.03;100.00
3434;BME280;1730;41.932;25.548;2023-05-29T04:20:45;100621.34;;;16.19;100.00
3434;BME280;1730;41.932;25.548;2023-05-29T04:23:13;100848.00;;;17.95;100.00
3434;BME280;1730;41.932;25.548;2023-05-29T04:25:39;100931.09;;;18.69;100.00
3434;BME280;1730;41.932;25.548;2023-05-29T04:28:04;100694.97;;;17.39;100.00
3434;BME280;1730;41.932;25.548;2023-05-29T04:30:30;100889.28;;;18.92;100.00
3434;BME280;1730;41.932;25.548;2023-05-29T04:32:57;100598.31;;;17.33;100.00
3434;BME280;1730;41.932;25.548;2023-05-29T04:35:23;100615.25;;;17.53;100.00
3434;BME280;1730;41.932;25.548;2023-05-29T04:37:48;100271.69;;;15.48;100.00
3434;BME280;1730;41.932;25.548;2023-05-29T04:40:14;100725.91;;;18.22;100.00
3434;BME280;1730;41.932;25.548;2023-05-29T04:42:43;100645.66;;;17.66;100.00
3434;BME280;1730;41.932;25.548;2023-05-29T04:45:11;100787.97;;;18.78;100.00
3434;BME280;1730;41.932;25.548;2023-05-29T04:47:36;100745.41;;;18.75;100.00
3434;BME280;1730;41.932;25.548;2023-05-29T04:50:10;100747.47;;;18.81;100.00
3434;BME280;1730;41.932;25.548;2023-05-29T04:52:36;100599.47;;;18.29;100.00
3434;BME280;1730;41.932;25.548;2023-05-29T04:55:03;100546.88;;;18.27;100.00
3434;BME280;1730;41.932;25.548;2023-05-29T04:57:28;100446.78;;;17.95;100.00
3434;BME280;1730;41.932;25.548;2023-05-29T04:59:54;100597.97;;;18.90;100.00
3434;BME280;1730;41.932;25.548;2023-05-29T05:02:20;100627.50;;;18.95;100.00
3434;BME280;1730;41.932;25.548;2023-05-29T05:04:45;100215.53;;;16.87;100.00
3434;BME280;1730;41.932;25.548;2023-05-29T05:07:11;100282.97;;;17.56;100.00
3434;BME280;1730;41.932;25.548;2023-05-29T05:09:36;100284.69;;;17.57;100.00
3434;BME280;1730;41.932;25.548;2023-05-29T05:12:02;100508.03;;;19.03;100.00
3434;BME280;1730;41.932;25.548;2023-05-29T05:14:27;100393.16;;;18.58;100.00
3434;BME280;1730;41.932;25.548;2023-05-29T05:16:53;100502.94;;;19.23;100.00
3434;BME280;1730;41.932;25.548;2023-05-29T05:19:19;100379.09;;;18.69;100.00
3434;BME280;1730;41.932;25.548;2023-05-29T05:21:44;100409.87;;;19.31;100.00
3434;BME280;1730;41.932;25.548;2023-05-29T05:24:10;100384.91;;;19.34;100.00
3434;BME280;1730;41.932;25.548;2023-05-29T05:26:35;100344.66;;;19.43;100.00
3434;BME280;1730;41.932;25.548;2023-05-29T05:29:01;99862.34;;;16.72;100.00
3434;BME280;1730;41.932;25.548;2023-05-29T05:31:27;100124.34;;;18.81;100.00
3434;BME280;1730;41.932;25.548;2023-05-29T05:33:52;100229.00;;;19.49;100.00
3434;BME280;1730;41.932;25.548;2023-05-29T05:36:18;100203.91;;;19.60;100.00
3434;BME280;1730;41.932;25.548;2023-05-29T05:38:43;100105.53;;;19.37;100.00
3434;BME280;1730;41.932;25.548;2023-05-29T05:41:09;100159.78;;;20.05;100.00
3434;BME280;1730;41.932;25.548;2023-05-29T05:43:35;99990.47;;;19.39;100.00
3434;BME280;1730;41.932;25.548;2023-05-29T05:46:01;100024.91;;;20.18;100.00
3434;BME280;1730;41.932;25.548;2023-05-29T05:48:27;99803.75;;;19.51;100.00
3434;BME280;1730;41.932;25.548;2023-05-29T05:50:52;99856.75;;;20.19;100.00
3434;BME280;1730;41.932;25.548;2023-05-29T05:53:18;99544.75;;;18.48;100.00
3434;BME280;1730;41.932;25.548;2023-05-29T05:55:43;99636.28;;;19.21;100.00
3434;BME280;1730;41.932;25.548;2023-05-29T05:58:09;99705.63;;;19.89;100.00
3434;BME280;1730;41.932;25.548;2023-05-29T06:00:35;99700.28;;;20.22;100.00
3434;BME280;1730;41.932;25.548;2023-05-29T06:03:01;99485.31;;;18.85;100.00
3434;BME280;1730;41.932;25.548;2023-05-29T06:05:29;99616.25;;;20.42;100.00
3434;BME280;1730;41.932;25.548;2023-05-29T06:07:55;99603.56;;;20.21;100.00
3434;BME280;1730;41.932;25.548;2023-05-29T06:10:21;99596.00;;;20.50;100.00
3434;BME280;1730;41.932;25.548;2023-05-29T06:12:47;99582.31;;;20.30;100.00
3434;BME280;1730;41.932;25.548;2023-05-29T06:15:12;99264.88;;;18.31;100.00
3434;BME280;1730;41.932;25.548;2023-05-29T06:17:38;99661.78;;;20.83;100.00
3434;BME280;1730;41.932;25.548;2023-05-29T06:20:05;99672.94;;;21.01;100.00
3434;BME280;1730;41.932;25.548;2023-05-29T06:22:36;99627.16;;;21.15;100.00
3434;BME280;1730;41.932;25.548;2023-05-29T06:25:01;99597.81;;;21.22;100.00
3434;BME280;1730;41.932;25.548;2023-05-29T06:27:27;99559.87;;;20.99;100.00
3434;BME280;1730;41.932;25.548;2023-05-29T06:29:52;99577.19;;;20.86;100.00
3434;BME280;1730;41.932;25.548;2023-05-29T06:32:18;99444.97;;;20.00;100.00
3434;BME280;1730;41.932;25.548;2023-05-29T06:34:43;99571.69;;;21.06;100.00
3434;BME280;1730;41.932;25.548;2023-05-29T06:37:09;99560.72;;;20.99;100.00
3434;BME280;1730;41.932;25.548;2023-05-29T06:39:34;99557.72;;;21.07;100.00
3434;BME280;1730;41.932;25.548;2023-05-29T06:42:00;99521.03;;;21.02;100.00
3434;BME280;1730;41.932;25.548;2023-05-29T06:44:26;99382.59;;;20.02;100.00
3434;BME280;1730;41.932;25.548;2023-05-29T06:46:52;99513.84;;;21.07;100.00
3434;BME280;1730;41.932;25.548;2023-05-29T06:49:18;99491.69;;;21.09;100.00
3434;BME280;1730;41.932;25.548;2023-05-29T06:51:44;99476.97;;;21.03;100.00
3434;BME280;1730;41.932;25.548;2023-05-29T06:54:10;99486.94;;;20.91;100.00
3434;BME280;1730;41.932;25.548;2023-05-29T06:56:36;99480.19;;;20.87;100.00
3434;BME280;1730;41.932;25.548;2023-05-29T06:59:01;99264.97;;;19.83;100.00
3434;BME280;1730;41.932;25.548;2023-05-29T07:01:31;99455.53;;;21.32;100.00
3434;BME280;1730;41.932;25.548;2023-05-29T07:03:57;98976.47;;;18.70;100.00
3434;BME280;1730;41.932;25.548;2023-05-29T07:06:23;99250.88;;;20.68;100.00
3434;BME280;1730;41.932;25.548;2023-05-29T07:08:48;99361.69;;;21.23;100.00
3434;BME280;1730;41.932;25.548;2023-05-29T07:13:42;99355.66;;;21.64;100.00
3434;BME280;1730;41.932;25.548;2023-05-29T07:16:08;99312.34;;;21.66;100.00
3434;BME280;1730;41.932;25.548;2023-05-29T07:18:33;99210.53;;;21.31;100.00
3434;BME280;1730;41.932;25.548;2023-05-29T07:21:00;99115.63;;;21.05;100.00
3434;BME280;1730;41.932;25.548;2023-05-29T07:23:25;99110.19;;;20.99;100.00
3434;BME280;1730;41.932;25.548;2023-05-29T07:25:51;99074.38;;;20.94;100.00
3434;BME280;1730;41.932;25.548;2023-05-29T07:28:16;99204.16;;;22.10;100.00
3434;BME280;1730;41.932;25.548;2023-05-29T07:30:42;99118.16;;;21.80;100.00
3434;BME280;1730;41.932;25.548;2023-05-29T07:33:08;99132.87;;;21.67;100.00
3434;BME280;1730;41.932;25.548;2023-05-29T07:35:33;99195.00;;;22.46;100.00
3434;BME280;1730;41.932;25.548;2023-05-29T07:37:59;99154.47;;;22.41;100.00
3434;BME280;1730;41.932;25.548;2023-05-29T07:40:27;99163.56;;;22.42;100.00
3434;BME280;1730;41.932;25.548;2023-05-29T07:42:52;99108.25;;;22.62;100.00
3434;BME280;1730;41.932;25.548;2023-05-29T07:45:18;98948.25;;;22.01;100.00
3434;BME280;1730;41.932;25.548;2023-05-29T07:47:44;99102.25;;;22.41;100.00
3434;BME280;1730;41.932;25.548;2023-05-29T07:50:09;98722.84;;;20.20;100.00
3434;BME280;1730;41.932;25.548;2023-05-29T07:52:36;98963.75;;;21.96;100.00
3434;BME280;1730;41.932;25.548;2023-05-29T07:55:01;99094.22;;;22.81;100.00
3434;BME280;1730;41.932;25.548;2023-05-29T07:57:28;98851.31;;;21.36;100.00
3434;BME280;1730;41.932;25.548;2023-05-29T07:59:53;99078.66;;;22.75;100.00
3434;BME280;1730;41.932;25.548;2023-05-29T08:02:19;98914.31;;;21.96;100.00
3434;BME280;1730;41.932;25.548;2023-05-29T08:04:44;98899.25;;;21.98;100.00
3434;BME280;1730;41.932;25.548;2023-05-29T08:07:10;99055.72;;;22.81;100.00
3434;BME280;1730;41.932;25.548;2023-05-29T08:09:35;98878.94;;;21.88;100.00
3434;BME280;1730;41.932;25.548;2023-05-29T08:12:01;98836.59;;;22.07;100.00
3434;BME280;1730;41.932;25.548;2023-05-29T08:14:27;99078.66;;;22.87;100.00
3434;BME280;1730;41.932;25.548;2023-05-29T08:16:52;99083.97;;;23.40;100.00
3434;BME280;1730;41.932;25.548;2023-05-29T08:19:18;99055.81;;;23.90;100.00
3434;BME280;1730;41.932;25.548;2023-05-29T08:21:43;99044.91;;;23.95;100.00
3434;BME280;1730;41.932;25.548;2023-05-29T08:24:09;98610.12;;;21.11;100.00
3434;BME280;1730;41.932;25.548;2023-05-29T08:26:35;98750.53;;;22.01;100.00
3434;BME280;1730;41.932;25.548;2023-05-29T08:29:01;98967.44;;;23.46;100.00
3434;BME280;1730;41.932;25.548;2023-05-29T08:31:29;98992.09;;;23.69;100.00
3434;BME280;1730;41.932;25.548;2023-05-29T08:33:54;98821.94;;;22.53;100.00
3434;BME280;1730;41.932;25.548;2023-05-29T08:36:20;98384.75;;;19.65;100.00
3434;BME280;1730;41.932;25.548;2023-05-29T08:38:50;98988.72;;;23.96;100.00
3434;BME280;1730;41.932;25.548;2023-05-29T08:44:15;98974.38;;;23.65;100.00
3434;BME280;1730;41.932;25.548;2023-05-29T08:47:11;98544.00;;;20.85;100.00
3434;BME280;1730;41.932;25.548;2023-05-29T08:49:52;98370.25;;;19.64;100.00
3434;BME280;1730;41.932;25.548;2023-05-29T08:52:23;98770.09;;;22.85;100.00
3434;BME280;1730;41.932;25.548;2023-05-29T08:54:54;98962.94;;;23.57;100.00
3434;BME280;1730;41.932;25.548;2023-05-29T08:57:21;98403.47;;;19.91;100.00
3434;BME280;1730;41.932;25.548;2023-05-29T08:59:50;98971.56;;;23.60;100.00
3434;BME280;1730;41.932;25.548;2023-05-29T09:02:16;98608.97;;;20.84;100.00
3434;BME280;1730;41.932;25.548;2023-05-29T09:04:45;98996.53;;;23.30;100.00
3434;BME280;1730;41.932;25.548;2023-05-29T09:07:13;98977.91;;;23.21;100.00
3434;BME280;1730;41.932;25.548;2023-05-29T09:09:40;98963.09;;;23.50;100.00
3434;BME280;1730;41.932;25.548;2023-05-29T09:12:06;98942.25;;;24.16;100.00
3434;BME280;1730;41.932;25.548;2023-05-29T09:14:44;98963.31;;;24.22;100.00
3434;BME280;1730;41.932;25.548;2023-05-29T09:17:13;98946.34;;;23.52;100.00
3434;BME280;1730;41.932;25.548;2023-05-29T09:19:39;98943.63;;;24.02;100.00
3434;BME280;1730;41.932;25.548;2023-05-29T09:22:09;98930.28;;;24.10;100.00
3434;BME280;1730;41.932;25.548;2023-05-29T09:24:36;98924.22;;;24.25;100.00
3434;BME280;1730;41.932;25.548;2023-05-29T09:27:03;98924.03;;;24.32;100.00
3434;BME280;1730;41.932;25.548;2023-05-29T09:29:41;98948.28;;;24.68;100.00
3434;BME280;1730;41.932;25.548;2023-05-29T09:32:14;98932.38;;;24.03;100.00
3434;BME280;1730;41.932;25.548;2023-05-29T09:34:39;98917.97;;;24.51;100.00
3434;BME280;1730;41.932;25.548;2023-05-29T09:37:07;98737.94;;;23.02;100.00
3434;BME280;1730;41.932;25.548;2023-05-29T09:39:49;98915.66;;;24.27;100.00
3434;BME280;1730;41.932;25.548;2023-05-29T09:42:17;98926.37;;;24.23;100.00
3434;BME280;1730;41.932;25.548;2023-05-29T09:44:44;98885.47;;;24.97;100.00
3434;BME280;1730;41.932;25.548;2023-05-29T09:47:18;98881.19;;;25.06;100.00
3434;BME280;1730;41.932;25.548;2023-05-29T09:49:45;98880.44;;;24.89;100.00
3434;BME280;1730;41.932;25.548;2023-05-29T09:52:12;98881.59;;;25.20;100.00
3434;BME280;1730;41.932;25.548;2023-05-29T09:54:42;98777.44;;;24.35;100.00
3434;BME280;1730;41.932;25.548;2023-05-29T09:57:16;98881.25;;;24.67;100.00
3434;BME280;1730;41.932;25.548;2023-05-29T09:59:45;98862.38;;;24.81;100.00
3434;BME280;1730;41.932;25.548;2023-05-29T10:02:16;98873.94;;;24.18;100.00
3434;BME280;1730;41.932;25.548;2023-05-29T10:04:43;98826.31;;;23.51;100.00
3434;BME280;1730;41.932;25.548;2023-05-29T10:07:31;98884.59;;;24.31;100.00
3434;BME280;1730;41.932;25.548;2023-05-29T10:10:03;98840.31;;;23.66;100.00
3434;BME280;1730;41.932;25.548;2023-05-29T10:12:32;98886.22;;;23.94;100.00
3434;BME280;1730;41.932;25.548;2023-05-29T10:15:01;98465.78;;;21.74;100.00
3434;BME280;1730;41.932;25.548;2023-05-29T10:17:32;98864.50;;;24.31;100.00
3434;BME280;1730;41.932;25.548;2023-05-29T10:20:01;98664.59;;;23.24;100.00
3434;BME280;1730;41.932;25.548;2023-05-29T10:22:28;98638.31;;;23.72;100.00
3434;BME280;1730;41.932;25.548;2023-05-29T10:24:56;98827.37;;;24.60;100.00
3434;BME280;1730;41.932;25.548;2023-05-29T10:27:21;98744.88;;;23.55;100.00
3434;BME280;1730;41.932;25.548;2023-05-29T10:30:04;98898.22;;;24.04;100.00
3434;BME280;1730;41.932;25.548;2023-05-29T10:35:12;98900.72;;;23.89;100.00
3434;BME280;1730;41.932;25.548;2023-05-29T10:38:08;98786.59;;;23.63;100.00
3434;BME280;1730;41.932;25.548;2023-05-29T10:40:35;98787.00;;;24.10;100.00
3434;BME280;1730;41.932;25.548;2023-05-29T10:43:01;98877.00;;;24.60;100.00
3434;BME280;1730;41.932;25.548;2023-05-29T10:53:08;98771.31;;;23.72;100.00
3434;BME280;1730;41.932;25.548;2023-05-29T10:55:39;98899.00;;;24.55;100.00
3434;BME280;1730;41.932;25.548;2023-05-29T10:58:08;98927.41;;;24.17;100.00
3434;BME280;1730;41.932;25.548;2023-05-29T11:00:39;98979.53;;;21.71;100.00
3434;BME280;1730;41.932;25.548;2023-05-29T11:03:08;99167.63;;;20.38;100.00
3434;BME280;1730;41.932;25.548;2023-05-29T11:05:34;99229.19;;;18.39;100.00
3434;BME280;1730;41.932;25.548;2023-05-29T11:08:01;99363.19;;;17.41;100.00
3434;BME280;1730;41.932;25.548;2023-05-29T11:10:45;99766.13;;;17.75;100.00
3434;BME280;1730;41.932;25.548;2023-05-29T11:13:39;99973.22;;;17.85;100.00
3434;BME280;1730;41.932;25.548;2023-05-29T11:16:14;100113.38;;;17.22;100.00
3434;BME280;1730;41.932;25.548;2023-05-29T11:18:46;100361.28;;;17.32;100.00
3434;BME280;1730;41.932;25.548;2023-05-29T11:24:24;100704.50;;;16.75;100.00
3434;BME280;1730;41.932;25.548;2023-05-29T11:26:54;101006.84;;;17.55;100.00
3434;BME280;1730;41.932;25.548;2023-05-29T11:29:25;101254.13;;;17.47;100.00
3434;BME280;1730;41.932;25.548;2023-05-29T11:32:05;101493.91;;;17.60;100.00
3434;BME280;1730;41.932;25.548;2023-05-29T11:34:32;101589.63;;;17.08;100.00
3434;BME280;1730;41.932;25.548;2023-05-29T11:37:02;101781.50;;;17.87;100.00
3434;BME280;1730;41.932;25.548;2023-05-29T11:39:28;101876.84;;;18.19;100.00
3434;BME280;1730;41.932;25.548;2023-05-29T11:41:55;101903.88;;;18.22;100.00
3434;BME280;1730;41.932;25.548;2023-05-29T11:44:23;101890.34;;;18.11;100.00
3434;BME280;1730;41.932;25.548;2023-05-29T11:47:05;101994.69;;;18.15;100.00
3434;BME280;1730;41.932;25.548;2023-05-29T11:49:35;102191.81;;;18.40;100.00
3434;BME280;1730;41.932;25.548;2023-05-29T11:52:12;102292.25;;;18.59;100.00
3434;BME280;1730;41.932;25.548;2023-05-29T11:54:39;102341.44;;;18.80;100.00
3434;BME280;1730;41.932;25.548;2023-05-29T11:57:07;102283.03;;;18.60;100.00
3434;BME280;1730;41.932;25.548;2023-05-29T11:59:33;102234.84;;;18.59;100.00
3434;BME280;1730;41.932;25.548;2023-05-29T12:02:01;102171.69;;;18.41;100.00
3434;BME280;1730;41.932;25.548;2023-05-29T12:04:28;102000.06;;;17.33;100.00
3434;BME280;1730;41.932;25.548;2023-05-29T12:06:53;102029.03;;;17.45;100.00
3434;BME280;1730;41.932;25.548;2023-05-29T12:11:51;102174.38;;;18.53;100.00
3434;BME280;1730;41.932;25.548;2023-05-29T12:14:16;101858.41;;;17.11;100.00
3434;BME280;1730;41.932;25.548;2023-05-29T12:16:42;102066.59;;;18.45;100.00
3434;BME280;1730;41.932;25.548;2023-05-29T12:19:08;101726.88;;;16.67;100.00
3434;BME280;1730;41.932;25.548;2023-05-29T12:21:34;101950.69;;;17.78;100.00
3434;BME280;1730;41.932;25.548;2023-05-29T12:24:00;102015.84;;;18.22;100.00
3434;BME280;1730;41.932;25.548;2023-05-29T12:26:29;102079.06;;;18.69;100.00
3434;BME280;1730;41.932;25.548;2023-05-29T12:28:55;101934.63;;;18.15;100.00
3434;BME280;1730;41.932;25.548;2023-05-29T12:31:28;102057.00;;;19.29;100.00
3434;BME280;1730;41.932;25.548;2023-05-29T12:33:59;102010.50;;;19.49;100.00
3434;BME280;1730;41.932;25.548;2023-05-29T12:36:25;101876.25;;;19.50;100.00
3434;BME280;1730;41.932;25.548;2023-05-29T12:38:52;101620.59;;;18.88;100.00
3434;BME280;1730;41.932;25.548;2023-05-29T12:41:25;101694.53;;;19.61;100.00
3434;BME280;1730;41.932;25.548;2023-05-29T12:43:58;101713.94;;;19.85;100.00
3434;BME280;1730;41.932;25.548;2023-05-29T12:46:26;101663.63;;;20.04;100.00
3434;BME280;1730;41.932;25.548;2023-05-29T12:48:55;101579.91;;;20.27;100.00
3434;BME280;1730;41.932;25.548;2023-05-29T12:51:25;101428.03;;;20.30;100.00
3434;BME280;1730;41.932;25.548;2023-05-29T12:53:51;101266.00;;;20.33;100.00
3434;BME280;1730;41.932;25.548;2023-05-29T12:56:22;101156.22;;;20.42;100.00
3434;BME280;1730;41.932;25.548;2023-05-29T12:58:50;100806.34;;;19.32;100.00
3434;BME280;1730;41.932;25.548;2023-05-29T13:01:16;100808.22;;;19.95;100.00
3434;BME280;1730;41.932;25.548;2023-05-29T13:03:42;100787.19;;;20.49;100.00
3434;BME280;1730;41.932;25.548;2023-05-29T13:06:07;100704.50;;;20.46;100.00
3434;BME280;1730;41.932;25.548;2023-05-29T13:08:33;100404.72;;;18.68;100.00
3434;BME280;1730;41.932;25.548;2023-05-29T13:10:59;100723.50;;;20.47;100.00
3434;BME280;1730;41.932;25.548;2023-05-29T13:13:24;100814.06;;;21.22;100.00
3434;BME280;1730;41.932;25.548;2023-05-29T13:15:49;100691.41;;;21.37;100.00
3434;BME280;1730;41.932;25.548;2023-05-29T13:18:15;100555.37;;;20.99;100.00
3434;BME280;1730;41.932;25.548;2023-05-29T13:20:41;100432.63;;;21.01;100.00
3434;BME280;1730;41.932;25.548;2023-05-29T13:23:06;100244.19;;;20.52;100.00
3434;BME280;1730;41.932;25.548;2023-05-29T13:25:34;100300.91;;;20.73;100.00